createdAt,value
2022-12-24T00:01:20.132Z,28.33
2022-12-24T00:03:21.919Z,25.80
2022-12-24T00:05:23.818Z,26.00
2022-12-24T00:07:25.703Z,27.90
2022-12-24T00:09:27.440Z,32.45
2022-12-24T00:11:29.375Z,30.27
2022-12-24T00:13:31.360Z,29.42
2022-12-24T00:15:33.085Z,27.83
2022-12-24T00:17:34.793Z,24.58
2022-12-24T00:19:36.548Z,28.60
2022-12-24T00:21:38.182Z,29.02
2022-12-24T00:23:40.432Z,27.08
2022-12-24T00:25:42.233Z,27.80
2022-12-24T00:27:43.934Z,27.58
2022-12-24T00:29:45.748Z,25.10
2022-12-24T00:31:47.469Z,26.80
2022-12-24T00:33:50.003Z,25.63
2022-12-24T00:35:52.830Z,25.48
2022-12-24T00:37:54.550Z,25.35
2022-12-24T00:39:56.290Z,25.38
2022-12-24T00:41:57.980Z,24.20
2022-12-24T00:44:02.054Z,26.27
2022-12-24T00:46:03.807Z,26.15
2022-12-24T00:48:05.810Z,27.17
2022-12-24T00:50:08.251Z,25.15
2022-12-24T00:52:09.973Z,26.55
2022-12-24T00:54:12.050Z,26.70
2022-12-24T00:56:13.876Z,28.05
2022-12-24T00:58:15.568Z,28.20
2022-12-24T01:00:18.118Z,28.17
2022-12-24T01:02:20.157Z,26.52
2022-12-24T01:04:40.735Z,27.48
2022-12-24T01:06:42.571Z,27.02
2022-12-24T01:08:44.262Z,26.60
2022-12-24T01:10:46.130Z,26.23
2022-12-24T01:12:48.072Z,26.27
2022-12-24T01:14:49.865Z,27.15
2022-12-24T01:16:51.492Z,25.55
2022-12-24T01:18:53.709Z,25.40
2022-12-24T01:21:01.534Z,23.13
2022-12-24T01:23:03.253Z,24.42
2022-12-24T01:25:05.381Z,23.83
2022-12-24T01:27:07.068Z,26.20
2022-12-24T01:29:08.786Z,24.77
2022-12-24T01:31:15.414Z,26.10
2022-12-24T01:33:17.250Z,26.27
2022-12-24T01:35:18.905Z,27.70
2022-12-24T01:37:20.712Z,26.45
2022-12-24T01:39:22.478Z,28.10
2022-12-24T01:41:43.764Z,27.35
2022-12-24T01:43:45.792Z,27.63
2022-12-24T01:45:49.198Z,28.48
2022-12-24T01:47:50.973Z,26.60
2022-12-24T01:49:57.423Z,26.58
2022-12-24T01:52:03.795Z,27.13
2022-12-24T01:54:08.539Z,27.63
2022-12-24T01:56:10.944Z,25.73
2022-12-24T01:58:14.500Z,26.50
2022-12-24T02:00:16.840Z,24.45
2022-12-24T02:02:19.517Z,24.90
2022-12-24T02:04:26.228Z,24.83
2022-12-24T02:06:28.080Z,27.13
2022-12-24T02:08:40.137Z,26.80
2022-12-24T02:10:42.301Z,25.42
2022-12-24T02:12:44.691Z,26.40
2022-12-24T02:14:46.389Z,25.88
2022-12-24T02:16:58.216Z,24.88
2022-12-24T02:19:11.519Z,25.45
2022-12-24T02:21:22.714Z,24.95
2022-12-24T02:23:58.066Z,24.85
2022-12-24T02:26:20.466Z,24.77
2022-12-24T02:28:40.608Z,25.10
2022-12-24T02:30:45.026Z,23.70
2022-12-24T02:32:58.639Z,26.13
2022-12-24T02:35:12.786Z,24.50
2022-12-24T02:37:35.122Z,24.33
2022-12-24T02:40:01.390Z,22.60
2022-12-24T02:42:06.004Z,21.88
2022-12-24T02:44:07.682Z,22.13
2022-12-24T02:46:13.196Z,21.45
2022-12-24T02:48:17.561Z,21.95
2022-12-24T02:50:20.484Z,22.17
2022-12-24T02:52:51.613Z,21.27
2022-12-24T02:54:53.283Z,22.25
2022-12-24T02:57:19.009Z,23.10
2022-12-24T02:59:33.088Z,24.45
2022-12-24T03:02:06.646Z,23.52
2022-12-24T03:04:12.065Z,25.98
2022-12-24T03:06:52.363Z,24.73
2022-12-24T03:09:06.447Z,27.48
2022-12-24T03:11:12.805Z,47.70
2022-12-24T03:13:17.079Z,37.85
2022-12-24T03:15:22.224Z,33.40
2022-12-24T03:17:23.972Z,31.33
2022-12-24T03:19:26.664Z,27.52
2022-12-24T03:21:31.985Z,24.20
2022-12-24T03:23:34.449Z,22.73
2022-12-24T03:25:40.216Z,23.77
2022-12-24T03:27:42.390Z,25.05
2022-12-24T03:29:45.303Z,24.48
2022-12-24T03:31:50.972Z,24.50
2022-12-24T03:33:52.659Z,23.50
2022-12-24T03:35:54.341Z,22.88
2022-12-24T03:37:56.888Z,22.15
2022-12-24T03:39:58.805Z,21.67
2022-12-24T03:42:00.466Z,21.80
2022-12-24T03:44:02.183Z,22.33
2022-12-24T03:46:06.756Z,24.20
2022-12-24T03:48:08.553Z,25.23
2022-12-24T03:50:10.438Z,25.27
2022-12-24T03:52:12.210Z,26.38
2022-12-24T03:54:13.877Z,27.40
2022-12-24T03:56:15.617Z,29.73
2022-12-24T03:58:17.437Z,28.75
2022-12-24T04:00:19.732Z,29.10
2022-12-24T04:02:21.603Z,31.10
2022-12-24T04:04:23.411Z,33.30
2022-12-24T04:06:25.075Z,31.67
2022-12-24T04:08:26.821Z,32.97
2022-12-24T04:10:28.481Z,31.65
2022-12-24T04:12:30.158Z,25.65
2022-12-24T04:14:32.034Z,27.15
2022-12-24T04:16:33.811Z,27.80
2022-12-24T04:18:36.150Z,23.85
2022-12-24T04:20:38.027Z,25.38
2022-12-24T04:22:39.685Z,24.58
2022-12-24T04:24:41.550Z,24.02
2022-12-24T04:26:43.346Z,23.80
2022-12-24T04:28:45.049Z,22.83
2022-12-24T04:30:46.707Z,23.60
2022-12-24T04:32:48.393Z,23.15
2022-12-24T04:34:50.188Z,25.58
2022-12-24T04:36:51.894Z,23.33
2022-12-24T04:38:53.740Z,22.00
2022-12-24T04:41:00.408Z,20.80
2022-12-24T04:43:02.264Z,19.42
2022-12-24T04:45:04.306Z,18.58
2022-12-24T04:47:05.998Z,19.80
2022-12-24T04:49:08.219Z,19.90
2022-12-24T04:51:10.133Z,19.90
2022-12-24T04:53:15.076Z,23.30
2022-12-24T04:55:16.765Z,22.77
2022-12-24T04:57:18.522Z,21.58
2022-12-24T04:59:20.224Z,21.80
2022-12-24T05:01:27.188Z,23.15
2022-12-24T05:03:29.095Z,22.52
2022-12-24T05:05:31.137Z,21.63
2022-12-24T05:07:34.349Z,20.88
2022-12-24T05:09:36.337Z,21.02
2022-12-24T05:11:38.105Z,20.77
2022-12-24T05:13:46.604Z,20.10
2022-12-24T05:15:49.270Z,20.00
2022-12-24T05:17:51.313Z,20.33
2022-12-24T05:19:52.980Z,22.40
2022-12-24T05:22:12.934Z,21.85
2022-12-24T05:24:33.472Z,18.38
2022-12-24T05:26:40.099Z,18.40
2022-12-24T05:28:41.809Z,18.90
2022-12-24T05:30:43.564Z,17.75
2022-12-24T05:32:45.205Z,18.35
2022-12-24T05:34:46.978Z,19.30
2022-12-24T05:36:48.638Z,18.40
2022-12-24T05:38:50.750Z,17.67
2022-12-24T05:40:52.494Z,18.15
2022-12-24T05:42:54.207Z,17.52
2022-12-24T05:44:56.199Z,17.67
2022-12-24T05:46:57.907Z,26.58
2022-12-24T05:48:59.636Z,26.25
2022-12-24T05:51:06.230Z,22.73
2022-12-24T05:53:08.339Z,21.83
2022-12-24T05:55:10.341Z,24.73
2022-12-24T05:57:12.156Z,22.98
2022-12-24T05:59:13.906Z,20.73
2022-12-24T06:01:16.223Z,19.98
2022-12-24T06:03:17.993Z,21.77
2022-12-24T06:05:19.592Z,29.92
2022-12-24T06:07:21.896Z,31.80
2022-12-24T06:09:23.597Z,33.13
2022-12-24T06:11:27.223Z,30.13
2022-12-24T06:13:29.253Z,26.30
2022-12-24T06:15:31.196Z,22.83
2022-12-24T06:17:33.639Z,20.73
2022-12-24T06:19:35.365Z,23.20
2022-12-24T06:21:37.111Z,23.58
2022-12-24T06:23:40.614Z,22.45
2022-12-24T06:25:42.310Z,24.40
2022-12-24T06:27:44.054Z,23.88
2022-12-24T06:29:45.733Z,24.17
2022-12-24T06:31:47.465Z,25.50
2022-12-24T06:33:49.714Z,24.00
2022-12-24T06:35:51.477Z,23.50
2022-12-24T06:37:53.164Z,23.73
2022-12-24T06:39:54.894Z,23.77
2022-12-24T06:41:56.581Z,23.70
2022-12-24T06:43:58.328Z,22.52
2022-12-24T06:46:00.587Z,21.90
2022-12-24T06:48:02.492Z,22.65
2022-12-24T06:50:04.897Z,23.45
2022-12-24T06:52:06.980Z,22.98
2022-12-24T06:54:08.968Z,22.75
2022-12-24T06:56:13.552Z,21.65
2022-12-24T06:58:15.272Z,22.10
2022-12-24T07:00:17.507Z,22.25
2022-12-24T07:02:19.373Z,20.85
2022-12-24T07:04:21.229Z,21.80
2022-12-24T07:06:28.636Z,23.73
2022-12-24T07:08:33.682Z,23.85
2022-12-24T07:10:36.666Z,24.52
2022-12-24T07:12:38.483Z,24.97
2022-12-24T07:14:40.315Z,25.90
2022-12-24T07:16:42.037Z,25.75
2022-12-24T07:18:44.441Z,25.73
2022-12-24T07:20:46.250Z,26.42
2022-12-24T07:22:47.952Z,28.40
2022-12-24T07:24:49.616Z,27.90
2022-12-24T07:26:51.558Z,29.45
2022-12-24T07:28:53.512Z,32.53
2022-12-24T07:30:56.779Z,30.48
2022-12-24T07:32:58.556Z,30.63
2022-12-24T07:35:00.370Z,29.23
2022-12-24T07:37:02.180Z,29.05
2022-12-24T07:39:03.969Z,29.55
2022-12-24T07:41:05.874Z,29.70
2022-12-24T07:43:07.878Z,29.27
2022-12-24T07:45:10.527Z,29.95
2022-12-24T07:47:12.340Z,30.42
2022-12-24T07:49:14.201Z,30.27
2022-12-24T07:51:15.880Z,29.63
2022-12-24T07:53:17.641Z,30.13
2022-12-24T07:55:19.638Z,30.45
2022-12-24T07:57:21.441Z,28.58
2022-12-24T07:59:23.330Z,30.75
2022-12-24T08:01:25.197Z,31.30
2022-12-24T08:03:27.916Z,30.33
2022-12-24T08:05:35.069Z,30.60
2022-12-24T08:07:36.844Z,31.67
2022-12-24T08:09:38.661Z,30.15
2022-12-24T08:11:42.442Z,28.20
2022-12-24T08:13:48.222Z,29.77
2022-12-24T08:15:50.011Z,29.77
2022-12-24T08:17:51.845Z,28.90
2022-12-24T08:19:53.583Z,28.65
2022-12-24T08:21:55.449Z,27.48
2022-12-24T08:23:57.640Z,27.38
2022-12-24T08:25:59.380Z,26.08
2022-12-24T08:28:01.201Z,27.25
2022-12-24T08:30:04.280Z,26.08
2022-12-24T08:32:06.148Z,27.83
2022-12-24T08:34:09.212Z,25.42
2022-12-24T08:36:10.952Z,28.63
2022-12-24T08:38:12.758Z,27.75
2022-12-24T08:40:14.492Z,26.98
2022-12-24T08:43:03.978Z,26.58
2022-12-24T08:45:49.123Z,27.00
2022-12-24T08:47:50.845Z,25.33
2022-12-24T08:49:52.863Z,25.13
2022-12-24T08:51:54.597Z,24.05
2022-12-24T08:53:56.318Z,24.10
2022-12-24T08:56:06.006Z,24.15
2022-12-24T08:58:07.829Z,24.55
2022-12-24T09:00:12.211Z,25.05
2022-12-24T09:02:14.215Z,22.85
2022-12-24T09:04:16.162Z,21.50
2022-12-24T09:06:18.107Z,21.17
2022-12-24T09:08:20.715Z,24.48
2022-12-24T09:10:22.660Z,24.20
2022-12-24T09:12:24.417Z,24.88
2022-12-24T09:14:26.707Z,29.42
2022-12-24T09:16:28.904Z,29.40
2022-12-24T09:18:31.062Z,30.33
2022-12-24T09:20:32.913Z,32.60
2022-12-24T09:22:37.149Z,33.78
2022-12-24T09:24:38.910Z,33.88
2022-12-24T09:26:42.584Z,32.83
2022-12-24T09:28:44.836Z,35.22
2022-12-24T09:30:55.801Z,35.78
2022-12-24T09:32:57.566Z,33.95
2022-12-24T09:34:59.537Z,32.60
2022-12-24T09:37:04.233Z,35.58
2022-12-24T09:39:05.927Z,36.08
2022-12-24T09:41:15.100Z,36.05
2022-12-24T09:43:20.690Z,34.05
2022-12-24T09:45:27.072Z,36.72
2022-12-24T09:47:44.141Z,36.15
2022-12-24T09:49:48.832Z,51.75
2022-12-24T09:51:55.810Z,41.30
2022-12-24T09:54:01.188Z,40.92
2022-12-24T09:56:07.329Z,42.05
2022-12-24T09:58:18.925Z,40.30
2022-12-24T10:00:32.629Z,41.33
2022-12-24T10:02:34.509Z,47.50
2022-12-24T10:04:36.162Z,46.05
2022-12-24T10:06:46.275Z,50.50
2022-12-24T10:09:03.722Z,59.00
2022-12-24T10:11:30.271Z,63.40
2022-12-24T10:13:49.916Z,65.10
2022-12-24T10:16:15.107Z,65.25
2022-12-24T10:18:38.540Z,64.30
2022-12-24T10:20:53.266Z,63.35
2022-12-24T10:23:08.986Z,72.88
2022-12-24T10:25:22.253Z,67.13
2022-12-24T10:27:28.658Z,65.35
2022-12-24T10:29:37.502Z,62.60
2022-12-24T10:31:58.109Z,61.17
2022-12-24T10:34:06.712Z,59.53
2022-12-24T10:36:13.378Z,59.75
2022-12-24T10:38:15.121Z,57.75
2022-12-24T10:40:31.609Z,56.35
2022-12-24T10:42:51.124Z,59.30
2022-12-24T10:44:58.119Z,58.08
2022-12-24T10:46:59.961Z,57.72
2022-12-24T10:49:04.433Z,56.03
2022-12-24T10:51:13.495Z,55.40
2022-12-24T10:53:20.459Z,56.05
2022-12-24T10:55:29.087Z,56.70
2022-12-24T10:57:30.784Z,58.03
2022-12-24T10:59:59.702Z,58.70
2022-12-24T11:02:02.191Z,55.17
2022-12-24T11:04:04.696Z,55.42
2022-12-24T11:06:10.957Z,54.72
2022-12-24T11:08:17.445Z,52.92
2022-12-24T11:10:23.970Z,53.65
2022-12-24T11:12:32.610Z,53.75
2022-12-24T11:14:38.885Z,55.20
2022-12-24T11:16:40.570Z,54.50
2022-12-24T11:18:51.962Z,52.92
2022-12-24T11:20:54.240Z,52.53
2022-12-24T11:22:56.887Z,51.40
2022-12-24T11:25:20.391Z,60.22
2022-12-24T11:27:24.571Z,53.15
2022-12-24T11:29:28.259Z,50.85
2022-12-24T11:31:33.064Z,51.03
2022-12-24T11:33:47.450Z,50.92
2022-12-24T11:38:01.517Z,54.47
2022-12-24T11:40:03.562Z,51.83
2022-12-24T11:42:05.521Z,50.92
2022-12-24T11:44:09.244Z,50.10
2022-12-24T11:46:21.208Z,40.25
2022-12-24T11:48:34.059Z,45.78
2022-12-24T11:50:40.112Z,41.72
2022-12-24T11:52:42.889Z,35.50
2022-12-24T11:55:13.764Z,33.42
2022-12-24T11:57:20.654Z,34.22
2022-12-24T11:59:44.239Z,35.85
2022-12-24T12:02:29.265Z,37.25
2022-12-24T12:04:33.732Z,38.58
2022-12-24T12:06:42.586Z,41.40
2022-12-24T12:08:46.488Z,43.00
2022-12-24T12:13:15.938Z,40.13
2022-12-24T12:15:22.190Z,42.45
2022-12-24T12:17:35.567Z,41.35
2022-12-24T12:19:39.210Z,44.35
2022-12-24T12:21:45.179Z,46.63
2022-12-24T12:24:04.748Z,46.42
2022-12-24T12:26:23.728Z,49.85
2022-12-24T12:28:41.821Z,57.15
2022-12-24T12:30:45.244Z,55.03
2022-12-24T12:33:06.227Z,55.60
2022-12-24T12:35:27.744Z,58.47
2022-12-24T12:37:35.874Z,55.58
2022-12-24T12:39:37.684Z,57.25
2022-12-24T12:41:45.139Z,56.25
2022-12-24T12:44:29.882Z,54.00
2022-12-24T12:46:44.156Z,51.63
2022-12-24T12:49:02.946Z,52.78
2022-12-24T12:51:27.116Z,54.70
2022-12-24T12:53:50.536Z,55.60
2022-12-24T12:56:17.460Z,53.15
2022-12-24T12:59:00.630Z,53.85
2022-12-24T13:01:36.310Z,50.58
2022-12-24T13:04:08.242Z,50.35
2022-12-24T13:06:18.782Z,43.40
2022-12-24T13:08:46.111Z,41.25
2022-12-24T13:11:02.495Z,37.53
2022-12-24T13:13:30.228Z,36.70
2022-12-24T13:15:41.952Z,37.55
2022-12-24T13:18:01.473Z,37.42
2022-12-24T13:20:32.580Z,36.35
2022-12-24T13:22:34.436Z,37.60
2022-12-24T13:24:36.770Z,36.58
2022-12-24T13:26:38.685Z,39.03
2022-12-24T13:28:40.432Z,46.72
2022-12-24T13:30:42.537Z,40.65
2022-12-24T13:32:50.404Z,45.20
2022-12-24T13:35:03.146Z,41.72
2022-12-24T13:37:20.136Z,42.03
2022-12-24T13:39:22.085Z,43.05
2022-12-24T13:41:40.638Z,42.05
2022-12-24T13:44:16.116Z,43.75
2022-12-24T13:46:58.312Z,43.72
2022-12-24T13:49:11.778Z,47.75
2022-12-24T13:51:25.243Z,47.67
2022-12-24T13:53:48.177Z,45.83
2022-12-24T13:55:53.086Z,49.08
2022-12-24T13:57:57.492Z,48.30
2022-12-24T14:00:21.447Z,49.25
2022-12-24T14:02:23.595Z,49.33
2022-12-24T14:04:29.404Z,48.17
2022-12-24T14:06:34.119Z,47.47
2022-12-24T14:08:44.649Z,52.03
2022-12-24T14:10:57.692Z,51.28
2022-12-24T14:12:59.547Z,48.25
2022-12-24T14:15:39.657Z,50.03
2022-12-24T14:17:41.483Z,50.17
2022-12-24T14:19:46.613Z,50.75
2022-12-24T14:22:16.398Z,51.05
2022-12-24T14:24:20.997Z,56.10
2022-12-24T14:26:28.646Z,57.38
2022-12-24T14:28:35.939Z,56.60
2022-12-24T14:30:37.633Z,58.97
2022-12-24T14:32:41.501Z,41.80
2022-12-24T14:36:46.640Z,51.00
2022-12-24T14:38:49.941Z,45.78
2022-12-24T14:41:13.394Z,44.75
2022-12-24T14:43:52.866Z,36.53
2022-12-24T14:46:22.045Z,39.42
2022-12-24T14:49:14.681Z,30.05
2022-12-24T14:51:50.557Z,25.13
2022-12-24T14:54:13.835Z,20.80
2022-12-24T14:56:20.773Z,20.55
2022-12-24T14:58:26.871Z,18.10
2022-12-24T15:00:28.739Z,16.85
2022-12-24T15:02:50.604Z,15.43
2022-12-24T15:05:19.789Z,20.13
2022-12-24T15:07:21.760Z,15.48
2022-12-24T15:09:29.596Z,17.13
2022-12-24T15:11:31.354Z,14.45
2022-12-24T15:13:38.471Z,13.25
2022-12-24T15:15:46.940Z,14.27
2022-12-24T15:17:54.494Z,10.40
2022-12-24T15:19:59.285Z,13.57
2022-12-24T15:22:02.464Z,12.88
2022-12-24T15:24:04.711Z,10.98
2022-12-24T15:26:29.696Z,10.07
2022-12-24T15:28:37.273Z,9.40
2022-12-24T15:30:39.070Z,8.98
2022-12-24T15:32:41.184Z,8.57
2022-12-24T15:34:46.423Z,9.20
2022-12-24T15:36:48.202Z,8.73
2022-12-24T15:38:52.676Z,8.48
2022-12-24T15:40:55.092Z,8.23
2022-12-24T15:42:56.849Z,8.13
2022-12-24T15:45:12.069Z,9.05
2022-12-24T15:47:19.779Z,9.95
2022-12-24T15:49:21.648Z,8.65
2022-12-24T15:51:26.299Z,8.90
2022-12-24T15:53:27.917Z,8.80
2022-12-24T15:55:34.132Z,9.95
2022-12-24T15:57:35.886Z,10.05
2022-12-24T15:59:37.746Z,9.63
2022-12-24T16:01:39.789Z,9.00
2022-12-24T16:03:55.252Z,8.25
2022-12-24T16:06:04.748Z,8.80
2022-12-24T16:08:16.770Z,8.75
2022-12-24T16:10:25.889Z,9.00
2022-12-24T16:12:27.621Z,9.43
2022-12-24T16:14:30.128Z,9.40
2022-12-24T16:16:41.974Z,9.80
2022-12-24T16:18:51.484Z,9.73
2022-12-24T16:20:54.938Z,8.75
2022-12-24T16:22:56.662Z,9.43
2022-12-24T16:25:08.934Z,9.82
2022-12-24T16:27:13.788Z,10.10
2022-12-24T16:29:16.519Z,10.13
2022-12-24T16:31:19.787Z,10.50
2022-12-24T16:33:23.604Z,11.32
2022-12-24T16:35:27.811Z,12.52
2022-12-24T16:37:29.653Z,12.10
2022-12-24T16:39:33.568Z,13.27
2022-12-24T16:43:56.820Z,17.50
2022-12-24T16:46:04.463Z,23.20
2022-12-24T16:48:07.376Z,25.55
2022-12-24T16:50:15.551Z,25.83
2022-12-24T16:52:26.352Z,21.88
2022-12-24T16:54:30.254Z,21.23
2022-12-24T16:58:33.610Z,15.27
2022-12-24T17:00:36.363Z,15.60
2022-12-24T17:02:39.879Z,15.80
2022-12-24T17:04:42.184Z,16.55
2022-12-24T17:06:44.316Z,14.32
2022-12-24T17:08:45.952Z,15.63
2022-12-24T17:10:51.832Z,13.65
2022-12-24T17:12:53.817Z,15.00
2022-12-24T17:14:55.522Z,14.85
2022-12-24T17:16:57.241Z,15.93
2022-12-24T17:18:58.872Z,15.57
2022-12-24T17:21:01.905Z,14.82
2022-12-24T17:23:03.915Z,13.93
2022-12-24T17:25:06.743Z,13.95
2022-12-24T17:27:08.565Z,12.90
2022-12-24T17:29:10.927Z,12.45
2022-12-24T17:31:15.263Z,12.43
2022-12-24T17:33:17.089Z,13.25
2022-12-24T17:35:18.927Z,11.02
2022-12-24T17:37:20.639Z,10.75
2022-12-24T17:39:27.535Z,10.68
2022-12-24T17:41:29.714Z,17.27
2022-12-24T17:43:31.588Z,16.60
2022-12-24T17:45:33.435Z,10.02
2022-12-24T17:47:35.107Z,9.32
2022-12-24T17:49:37.408Z,12.40
2022-12-24T17:51:45.062Z,8.77
2022-12-24T17:53:48.293Z,8.00
2022-12-24T17:55:50.001Z,7.35
2022-12-24T17:57:51.966Z,8.65
2022-12-24T17:59:53.679Z,8.48
2022-12-24T18:01:55.546Z,8.77
2022-12-24T18:04:02.122Z,11.38
2022-12-24T18:06:06.058Z,8.50
2022-12-24T18:10:09.925Z,10.05
2022-12-24T18:12:13.072Z,10.75
2022-12-24T18:14:15.495Z,9.27
2022-12-24T18:16:22.779Z,9.73
2022-12-24T18:18:25.014Z,9.98
2022-12-24T18:20:27.021Z,11.15
2022-12-24T18:22:28.748Z,13.27
2022-12-24T18:24:30.428Z,12.48
2022-12-24T18:26:33.443Z,11.52
2022-12-24T18:28:35.178Z,9.32
2022-12-24T18:30:39.091Z,10.32
2022-12-24T18:34:43.167Z,7.70
2022-12-24T18:36:48.283Z,7.72
2022-12-24T18:38:53.050Z,7.80
2022-12-24T18:40:54.822Z,7.85
2022-12-24T18:42:56.649Z,7.20
2022-12-24T18:44:58.405Z,5.32
2022-12-24T18:47:00.233Z,5.95
2022-12-24T18:49:02.415Z,5.53
2022-12-24T18:51:05.115Z,5.57
2022-12-24T18:53:07.839Z,5.60
2022-12-24T18:55:09.920Z,5.60
2022-12-24T18:57:12.223Z,6.55
2022-12-24T18:59:13.872Z,6.10
2022-12-24T19:01:18.776Z,5.93
2022-12-24T19:03:20.620Z,5.70
2022-12-24T19:05:22.450Z,5.47
2022-12-24T19:07:24.269Z,5.88
2022-12-24T19:09:26.180Z,5.68
2022-12-24T19:11:30.032Z,5.13
2022-12-24T19:15:35.977Z,5.30
2022-12-24T19:17:37.856Z,5.22
2022-12-24T19:19:40.247Z,5.78
2022-12-24T19:21:41.994Z,4.50
2022-12-24T19:23:44.569Z,5.20
2022-12-24T19:25:46.327Z,4.63
2022-12-24T19:27:48.157Z,5.15
2022-12-24T19:29:49.918Z,5.32
2022-12-24T19:31:51.761Z,5.38
2022-12-24T19:33:56.102Z,5.40
2022-12-24T19:35:57.793Z,5.47
2022-12-24T19:37:59.747Z,5.57
2022-12-24T19:40:01.455Z,6.13
2022-12-24T19:42:03.577Z,6.20
2022-12-24T19:44:05.492Z,5.22
2022-12-24T19:46:12.538Z,4.63
2022-12-24T19:48:14.412Z,4.97
2022-12-24T19:50:17.290Z,5.72
2022-12-24T19:52:19.035Z,5.38
2022-12-24T19:54:20.982Z,5.50
2022-12-24T19:56:23.859Z,4.88
2022-12-24T19:58:26.656Z,6.43
2022-12-24T20:00:28.451Z,6.20
2022-12-24T20:02:30.333Z,6.32
2022-12-24T20:04:32.399Z,5.47
2022-12-24T20:06:35.462Z,5.95
2022-12-24T20:08:38.110Z,4.80
2022-12-24T20:10:41.623Z,5.80
2022-12-24T20:12:43.312Z,4.22
2022-12-24T20:14:45.459Z,4.45
2022-12-24T20:16:47.137Z,4.43
2022-12-24T20:18:53.328Z,4.53
2022-12-24T20:20:59.235Z,4.80
2022-12-24T20:23:01.504Z,5.25
2022-12-24T20:25:03.359Z,5.85
2022-12-24T20:27:05.199Z,5.55
2022-12-24T20:29:08.942Z,5.78
2022-12-24T20:31:12.754Z,5.80
2022-12-24T20:35:16.170Z,5.43
2022-12-24T20:37:17.965Z,6.20
2022-12-24T20:39:19.696Z,6.57
2022-12-24T20:41:22.720Z,7.05
2022-12-24T20:43:26.490Z,7.32
2022-12-24T20:45:30.025Z,8.65
2022-12-24T20:47:32.349Z,7.63
2022-12-24T20:49:34.082Z,7.40
2022-12-24T20:51:35.773Z,10.88
2022-12-24T20:53:39.271Z,7.43
2022-12-24T20:55:41.295Z,7.20
2022-12-24T20:57:43.681Z,7.15
2022-12-24T20:59:45.371Z,8.00
2022-12-24T21:01:47.192Z,8.65
2022-12-24T21:03:49.042Z,7.80
2022-12-24T21:05:50.756Z,8.38
2022-12-24T21:07:52.465Z,8.55
2022-12-24T21:09:54.200Z,8.30
2022-12-24T21:11:56.009Z,9.25
2022-12-24T21:13:57.797Z,9.00
2022-12-24T21:15:59.540Z,9.68
2022-12-24T21:18:01.951Z,9.68
2022-12-24T21:20:04.874Z,11.27
2022-12-24T21:22:06.536Z,15.15
2022-12-24T21:24:09.397Z,13.82
2022-12-24T21:26:11.340Z,15.57
2022-12-24T21:28:13.103Z,14.27
2022-12-24T21:30:14.876Z,16.40
2022-12-24T21:32:16.621Z,12.77
2022-12-24T21:34:18.300Z,11.60
2022-12-24T21:36:20.881Z,10.75
2022-12-24T21:38:22.601Z,8.93
2022-12-24T21:40:24.298Z,7.28
2022-12-24T21:42:26.730Z,8.07
2022-12-24T21:44:28.567Z,7.53
2022-12-24T21:46:30.460Z,9.20
2022-12-24T21:48:50.847Z,6.68
2022-12-24T21:50:55.578Z,7.68
2022-12-24T21:53:18.484Z,6.15
2022-12-24T21:55:20.151Z,5.78
2022-12-24T21:57:40.799Z,4.95
2022-12-24T21:59:42.582Z,6.82
2022-12-24T22:01:44.444Z,4.72
2022-12-24T22:03:50.166Z,6.35
2022-12-24T22:05:52.217Z,3.20
2022-12-24T22:08:13.349Z,4.20
2022-12-24T22:10:33.778Z,4.55
2022-12-24T22:12:36.212Z,4.75
2022-12-24T22:14:38.108Z,2.80
2022-12-24T22:16:39.747Z,3.22
2022-12-24T22:18:41.445Z,4.20
2022-12-24T22:20:44.961Z,2.95
2022-12-24T22:22:48.603Z,3.17
2022-12-24T22:24:50.301Z,3.35
2022-12-24T22:26:52.584Z,3.20
2022-12-24T22:28:54.365Z,3.20
2022-12-24T22:30:57.213Z,3.25
2022-12-24T22:32:59.208Z,3.40
2022-12-24T22:35:00.921Z,3.47
2022-12-24T22:37:02.659Z,3.22
2022-12-24T22:39:04.841Z,3.75
2022-12-24T22:41:10.702Z,3.17
2022-12-24T22:43:12.321Z,3.25
2022-12-24T22:45:18.537Z,3.10
2022-12-24T22:47:23.734Z,3.47
2022-12-24T22:49:25.319Z,3.58
2022-12-24T22:51:28.161Z,3.53
2022-12-24T22:53:29.890Z,3.65
2022-12-24T22:55:31.536Z,3.67
2022-12-24T22:57:33.279Z,3.20
2022-12-24T22:59:36.471Z,3.15
2022-12-24T23:01:39.855Z,3.70
2022-12-24T23:03:41.944Z,3.30
2022-12-24T23:05:44.185Z,3.40
2022-12-24T23:07:45.985Z,3.67
2022-12-24T23:09:47.592Z,3.60
2022-12-24T23:11:49.291Z,3.42
2022-12-24T23:14:09.960Z,3.42
2022-12-24T23:16:11.755Z,3.80
2022-12-24T23:18:13.743Z,5.47
2022-12-24T23:20:15.823Z,4.10
2022-12-24T23:22:17.486Z,5.57
2022-12-24T23:24:19.152Z,4.20
2022-12-24T23:26:22.251Z,5.35
2022-12-24T23:28:24.079Z,5.55
2022-12-24T23:30:25.809Z,5.90
2022-12-24T23:32:27.644Z,4.40
2022-12-24T23:34:29.354Z,5.15
2022-12-24T23:36:31.041Z,5.05
2022-12-24T23:38:33.345Z,4.25
2022-12-24T23:40:35.083Z,4.80
2022-12-24T23:42:36.703Z,5.45
2022-12-24T23:44:38.466Z,4.10
2022-12-24T23:46:40.726Z,5.40
2022-12-24T23:48:42.744Z,4.82
2022-12-24T23:50:45.328Z,4.18
2022-12-24T23:52:47.046Z,3.90
2022-12-24T23:54:48.783Z,4.15
2022-12-24T23:56:50.498Z,4.20
2022-12-24T23:58:52.283Z,4.05
